Time;durP1;ratioP1;P1;durP2;ratioP2;P2;SDS_P1;SDS_P2;PMS_P1;PMS_P2;Temp;Humidity;BMP_temperature;BMP_pressure;BME280_temperature;BME280_humidity;BME280_pressure;Samples;Min_cycle;Max_cycle;Signal;HPM_P1;HPM_P2
2023/12/18 00:01:45;;;;;;;11.30;10.10;;;;;;;3.10;71.36;98149.22;4990242;28;20235;-70
2023/12/18 00:04:10;;;;;;;14.20;10.60;;;;;;;3.22;71.29;98146.78;4990800;28;20169;-69
2023/12/18 00:06:35;;;;;;;12.07;8.97;;;;;;;3.16;71.12;98146.69;4990318;28;20179;-72
2023/12/18 00:09:01;;;;;;;10.60;8.83;;;;;;;3.25;70.93;98140.75;4990623;28;20264;-71
2023/12/18 00:11:26;;;;;;;14.07;9.47;;;;;;;3.11;71.57;98141.41;4990688;28;20690;-72
2023/12/18 00:13:51;;;;;;;11.87;9.83;;;;;;;3.21;71.01;98136.34;4991483;28;20180;-72
2023/12/18 00:16:17;;;;;;;14.43;9.93;;;;;;;3.21;70.81;98133.78;4991158;28;20200;-70
2023/12/18 00:18:42;;;;;;;12.20;9.30;;;;;;;3.05;71.34;98132.69;4990421;28;20207;-69
2023/12/18 00:21:07;;;;;;;11.63;9.23;;;;;;;3.22;70.89;98132.94;4989251;28;20758;-71
2023/12/18 00:23:33;;;;;;;13.23;10.30;;;;;;;3.09;71.50;98129.28;4990337;28;20173;-73
2023/12/18 00:25:58;;;;;;;11.00;9.13;;;;;;;3.21;71.19;98126.84;4989963;28;20252;-71
2023/12/18 00:28:23;;;;;;;11.83;9.23;;;;;;;3.02;71.55;98133.50;5000943;28;20821;-72
2023/12/18 00:30:49;;;;;;;13.27;10.60;;;;;;;3.26;70.97;98120.03;5009282;28;20187;-71
2023/12/18 00:33:14;;;;;;;14.90;10.47;;;;;;;3.08;71.28;98120.63;5009257;28;20234;-70
2023/12/18 00:35:40;;;;;;;12.30;9.90;;;;;;;3.10;71.03;98113.75;5009365;28;20183;-71
2023/12/18 00:38:05;;;;;;;12.53;10.23;;;;;;;3.12;70.92;98122.44;5008381;28;20225;-71
2023/12/18 00:40:30;;;;;;;19.00;11.70;;;;;;;3.17;70.72;98125.94;5009276;28;20905;-71
2023/12/18 00:42:57;;;;;;;12.87;10.00;;;;;;;3.11;71.21;98119.81;4996456;28;20536;-72
2023/12/18 00:45:22;;;;;;;14.33;11.03;;;;;;;3.13;71.16;98120.72;4989939;28;20229;-70
2023/12/18 00:47:48;;;;;;;15.17;11.23;;;;;;;3.11;70.90;98122.41;4989790;28;20529;-71
2023/12/18 00:50:13;;;;;;;16.83;11.50;;;;;;;2.98;71.23;98123.97;4989216;28;20185;-70
2023/12/18 00:52:39;;;;;;;15.20;11.00;;;;;;;3.04;71.19;98124.03;4989336;28;20185;-72
2023/12/18 00:55:05;;;;;;;14.33;11.13;;;;;;;3.09;70.77;98119.78;4989569;28;20229;-70
2023/12/18 00:57:31;;;;;;;14.87;10.73;;;;;;;3.06;71.02;98117.16;4989318;28;20260;-70
2023/12/18 00:59:56;;;;;;;17.40;10.80;;;;;;;3.01;71.15;98116.22;4989142;28;20879;-70
2023/12/18 01:02:21;;;;;;;14.80;11.97;;;;;;;3.03;71.14;98118.84;4990075;28;20196;-71
2023/12/18 01:04:47;;;;;;;20.13;12.80;;;;;;;3.12;71.36;98122.44;4989376;28;20639;-71
2023/12/18 01:07:12;;;;;;;19.50;14.00;;;;;;;3.11;70.86;98123.25;4989229;28;20199;-70
2023/12/18 01:09:38;;;;;;;22.90;14.87;;;;;;;3.12;70.64;98108.59;4989502;28;20161;-71
2023/12/18 01:12:03;;;;;;;23.03;15.20;;;;;;;3.21;70.26;98118.19;4989423;28;20203;-72
2023/12/18 01:14:29;;;;;;;24.40;16.27;;;;;;;3.11;70.55;98110.28;4989429;28;20172;-71
2023/12/18 01:16:54;;;;;;;27.13;16.93;;;;;;;3.02;71.01;98119.69;4989788;28;20276;-71
2023/12/18 01:19:20;;;;;;;25.10;15.30;;;;;;;3.08;70.70;98120.63;4989267;28;20173;-70
2023/12/18 01:21:46;;;;;;;21.37;14.80;;;;;;;3.08;70.81;98112.84;4988831;28;20530;-71
2023/12/18 01:24:11;;;;;;;27.80;16.87;;;;;;;3.06;70.95;98116.28;4989113;28;20413;-70
2023/12/18 01:26:37;;;;;;;23.27;15.60;;;;;;;2.95;71.04;98116.13;4988828;28;20247;-70
2023/12/18 01:29:03;;;;;;;27.43;17.17;;;;;;;2.98;70.89;98105.81;5004418;28;20190;-72
2023/12/18 01:31:29;;;;;;;24.50;15.50;;;;;;;3.07;70.45;98105.94;5008205;28;20180;-71
2023/12/18 01:33:54;;;;;;;23.83;17.40;;;;;;;2.93;71.46;98115.25;5008172;28;20418;-71
2023/12/18 01:36:20;;;;;;;25.63;17.77;;;;;;;3.05;70.79;98110.25;5008192;28;20670;-72
2023/12/18 01:38:45;;;;;;;23.07;16.90;;;;;;;2.93;71.09;98112.66;5008255;28;20263;-71
2023/12/18 01:41:11;;;;;;;29.07;18.20;;;;;;;2.99;70.68;98109.28;5008034;28;20683;-70
2023/12/18 01:43:37;;;;;;;27.30;17.03;;;;;;;2.92;71.04;98113.50;4989500;28;20645;-71
2023/12/18 01:46:03;;;;;;;22.70;16.77;;;;;;;3.01;70.70;98105.84;4988565;28;20183;-70
2023/12/18 01:48:29;;;;;;;22.50;14.90;;;;;;;2.99;70.73;98101.50;4988771;28;20231;-71
2023/12/18 01:50:57;;;;;;;25.90;15.97;;;;;;;2.92;70.72;98100.53;4988258;28;20436;-72
2023/12/18 01:53:29;;;;;;;25.13;14.93;;;;;;;2.93;71.24;98097.13;4988843;28;20519;-71
2023/12/18 01:55:56;;;;;;;21.30;16.40;;;;;;;2.96;70.76;98087.63;4988656;28;20415;-71
2023/12/18 01:58:23;;;;;;;21.53;15.70;;;;;;;3.13;70.54;98087.84;4988633;28;20431;-70
2023/12/18 02:00:48;;;;;;;21.57;14.67;;;;;;;3.05;70.36;98089.50;4987808;28;20455;-70
2023/12/18 02:03:16;;;;;;;22.27;13.20;;;;;;;3.02;70.68;98094.63;4988135;28;20427;-71
2023/12/18 02:05:42;;;;;;;18.30;13.67;;;;;;;2.93;71.01;98094.53;4988164;28;20181;-72
2023/12/18 02:08:07;;;;;;;24.13;14.50;;;;;;;2.86;71.65;98090.06;4988527;28;20412;-70
2023/12/18 02:10:34;;;;;;;23.50;14.57;;;;;;;3.09;70.62;98086.06;4987796;28;20207;-70
2023/12/18 02:12:59;;;;;;;22.37;13.97;;;;;;;3.00;71.29;98088.56;4988005;28;20215;-71
2023/12/18 02:15:25;;;;;;;19.90;14.03;;;;;;;2.91;71.89;98083.25;4987877;28;20416;-70
2023/12/18 02:17:50;;;;;;;19.33;12.27;;;;;;;2.93;71.95;98079.81;4987650;28;20168;-71
2023/12/18 02:20:15;;;;;;;20.87;14.47;;;;;;;2.94;71.44;98086.75;4987361;28;20204;-69
2023/12/18 02:22:53;;;;;;;21.17;14.23;;;;;;;3.11;70.67;98083.50;4987757;28;21048;-70
2023/12/18 02:25:20;;;;;;;20.63;13.73;;;;;;;3.05;71.34;98081.72;4988010;28;20252;-71
2023/12/18 02:27:46;;;;;;;25.30;14.67;;;;;;;2.79;72.02;98088.25;4992805;28;20932;-69
2023/12/18 02:30:16;;;;;;;20.43;13.37;;;;;;;2.95;71.59;98072.03;5007748;28;20765;-71
2023/12/18 02:32:42;;;;;;;21.37;13.73;;;;;;;2.99;71.17;98068.66;5007906;28;20450;-71
2023/12/18 02:35:08;;;;;;;21.23;13.53;;;;;;;2.93;71.84;98068.59;5008035;28;20439;-71
2023/12/18 02:37:33;;;;;;;21.60;13.43;;;;;;;2.89;71.55;98079.75;5008104;28;20855;-71
2023/12/18 02:39:58;;;;;;;21.20;15.10;;;;;;;2.91;72.19;98070.28;5007862;28;20272;-71
2023/12/18 02:42:24;;;;;;;21.00;14.47;;;;;;;2.92;71.81;98072.88;4998597;28;20259;-71
2023/12/18 02:44:49;;;;;;;23.80;16.27;;;;;;;2.87;71.68;98069.34;4988755;28;20185;-71
2023/12/18 02:47:15;;;;;;;24.77;16.60;;;;;;;2.88;72.22;98072.81;4988445;28;20538;-71
2023/12/18 02:49:40;;;;;;;24.87;16.87;;;;;;;2.81;72.39;98064.09;4988338;28;20288;-70
2023/12/18 02:52:05;;;;;;;23.90;16.60;;;;;;;2.94;72.15;98065.13;4987836;28;20197;-70
2023/12/18 02:54:31;;;;;;;32.03;17.60;;;;;;;2.86;71.64;98057.25;4988298;28;20267;-71
2023/12/18 02:56:56;;;;;;;23.37;15.93;;;;;;;2.71;72.58;98068.28;4988613;28;20169;-70
2023/12/18 02:59:22;;;;;;;24.47;17.40;;;;;;;2.92;71.82;98057.31;4988332;28;20730;-72
2023/12/18 03:01:47;;;;;;;29.80;17.03;;;;;;;2.91;71.77;98057.31;4989927;28;20196;-72
2023/12/18 03:04:12;;;;;;;28.03;16.00;;;;;;;2.77;72.72;98058.84;4992224;28;20208;-70
2023/12/18 03:06:38;;;;;;;33.27;20.00;;;;;;;2.78;72.33;98055.41;4992063;28;20227;-71
2023/12/18 03:09:03;;;;;;;23.80;15.07;;;;;;;2.83;72.13;98066.69;4992168;28;20181;-70
2023/12/18 03:11:28;;;;;;;33.40;18.03;;;;;;;2.97;71.80;98054.78;4992327;28;20547;-70
2023/12/18 03:13:54;;;;;;;26.93;17.70;;;;;;;2.87;72.11;98055.53;4992925;28;20176;-72
2023/12/18 03:16:19;;;;;;;27.23;17.07;;;;;;;2.83;71.94;98048.56;4992451;28;20227;-72
2023/12/18 03:18:45;;;;;;;22.97;15.40;;;;;;;2.85;71.94;98057.22;4992820;28;20189;-71
2023/12/18 03:21:10;;;;;;;22.87;15.80;;;;;;;2.79;72.43;98050.25;4992275;28;20216;-72
2023/12/18 03:23:37;;;;;;;21.83;15.07;;;;;;;2.97;71.58;98052.19;4992456;28;20252;-72
2023/12/18 03:26:02;;;;;;;22.37;15.57;;;;;;;2.80;72.26;98051.97;4992905;28;20662;-72
2023/12/18 03:28:29;;;;;;;20.30;13.33;;;;;;;2.74;72.39;98047.59;5004008;28;20447;-71
2023/12/18 03:30:54;;;;;;;25.07;15.83;;;;;;;2.95;71.22;98043.53;5012379;28;20935;-71
2023/12/18 03:33:20;;;;;;;23.13;16.13;;;;;;;2.90;71.64;98045.19;5012301;28;20183;-72
2023/12/18 03:35:45;;;;;;;22.90;14.93;;;;;;;2.83;71.77;98043.38;5012491;28;20180;-72
2023/12/18 03:38:12;;;;;;;20.73;15.37;;;;;;;2.77;72.33;98043.31;5012965;28;20180;-70
2023/12/18 03:40:37;;;;;;;19.13;13.40;;;;;;;2.78;72.38;98034.66;5013090;28;20215;-71
2023/12/18 03:43:03;;;;;;;24.27;15.90;;;;;;;2.68;72.44;98038.84;4999824;28;20450;-70
2023/12/18 03:45:28;;;;;;;25.83;15.40;;;;;;;2.72;72.48;98041.50;4994109;28;20260;-70
2023/12/18 03:47:53;;;;;;;22.90;13.13;;;;;;;2.79;72.87;98036.38;4994347;28;20201;-71
2023/12/18 03:50:19;;;;;;;23.57;15.23;;;;;;;2.81;72.77;98032.09;4993484;28;20945;-70
2023/12/18 03:52:44;;;;;;;23.53;14.97;;;;;;;2.86;72.12;98038.22;4993673;28;20269;-70
2023/12/18 03:55:10;;;;;;;20.77;13.93;;;;;;;3.01;72.12;98033.22;4994510;28;20169;-71
2023/12/18 03:57:35;;;;;;;23.23;14.83;;;;;;;2.79;72.71;98036.38;4996382;28;20173;-72
2023/12/18 04:00:00;;;;;;;18.80;13.27;;;;;;;2.80;73.08;98027.78;4995156;28;20262;-70
2023/12/18 04:02:26;;;;;;;21.23;13.57;;;;;;;2.79;72.76;98031.22;4993206;28;20173;-70
2023/12/18 04:04:52;;;;;;;20.27;12.77;;;;;;;2.96;72.31;98025.41;4993739;28;20188;-70
2023/12/18 04:07:18;;;;;;;17.70;12.77;;;;;;;2.91;72.40;98032.25;4995291;28;20179;-72
2023/12/18 04:09:43;;;;;;;19.97;12.50;;;;;;;2.81;73.05;98034.69;5003204;28;20477;-71
2023/12/18 04:12:09;;;;;;;23.30;13.00;;;;;;;2.90;72.69;98034.81;5008801;28;20908;-70
2023/12/18 04:14:34;;;;;;;18.80;13.23;;;;;;;2.97;72.58;98034.91;5009519;28;20199;-71
2023/12/18 04:17:00;;;;;;;20.53;13.50;;;;;;;2.77;72.99;98028.63;5010052;28;20279;-72
2023/12/18 04:19:25;;;;;;;20.80;12.70;;;;;;;2.82;72.70;98026.09;5009570;28;20639;-70
2023/12/18 04:21:50;;;;;;;22.33;14.90;;;;;;;2.85;72.66;98026.97;5010937;28;20218;-72
2023/12/18 04:24:16;;;;;;;21.30;13.73;;;;;;;2.82;72.79;98028.69;5010703;28;20227;-71
2023/12/18 04:26:43;;;;;;;17.20;11.83;;;;;;;2.73;73.07;98029.41;5011191;28;20180;-71
2023/12/18 04:29:08;;;;;;;23.87;14.10;;;;;;;2.71;73.48;98021.63;5009315;28;20242;-71
2023/12/18 04:31:34;;;;;;;21.07;12.50;;;;;;;2.63;74.05;98019.78;5008254;28;20455;-71
2023/12/18 04:33:59;;;;;;;23.70;16.20;;;;;;;2.66;73.63;98019.81;5006270;28;20200;-71
2023/12/18 04:36:24;;;;;;;24.30;15.63;;;;;;;2.91;72.37;98018.44;4999535;28;20185;-71
2023/12/18 04:38:50;;;;;;;24.83;14.93;;;;;;;2.85;72.74;98019.19;4990529;28;20183;-71
2023/12/18 04:41:22;;;;;;;24.00;15.23;;;;;;;2.75;73.21;98014.75;4999313;28;20215;-70
2023/12/18 04:43:48;;;;;;;19.33;13.87;;;;;;;2.74;73.03;98019.09;4992723;28;20181;-70
2023/12/18 04:46:15;;;;;;;22.50;13.90;;;;;;;2.66;73.72;98020.69;5003169;28;20435;-71
2023/12/18 04:48:41;;;;;;;20.90;14.30;;;;;;;2.77;73.43;98015.66;5004890;28;20432;-71
2023/12/18 04:51:07;;;;;;;21.50;12.20;;;;;;;2.81;72.67;98012.25;5000937;28;20474;-70
2023/12/18 04:53:35;;;;;;;20.80;12.73;;;;;;;2.72;73.45;98010.41;5009964;28;21149;-72
2023/12/18 04:56:01;;;;;;;19.00;12.30;;;;;;;2.77;73.38;98014.78;5010013;28;20642;-71
2023/12/18 04:58:26;;;;;;;20.53;13.03;;;;;;;2.71;73.33;98018.16;5009767;28;20462;-71
2023/12/18 05:00:52;;;;;;;24.00;13.50;;;;;;;2.87;72.52;98008.84;5009718;28;20212;-70
2023/12/18 05:03:17;;;;;;;21.43;10.80;;;;;;;2.79;72.34;98005.28;5001814;28;20203;-70
2023/12/18 05:05:42;;;;;;;20.50;12.80;;;;;;;3.02;71.70;98009.03;5009657;28;20172;-71
2023/12/18 05:08:08;;;;;;;21.00;12.80;;;;;;;2.66;72.78;98012.91;5009638;28;20191;-71
2023/12/18 05:10:33;;;;;;;18.50;11.93;;;;;;;2.63;73.10;98017.19;5009052;28;20183;-70
2023/12/18 05:12:59;;;;;;;19.73;11.90;;;;;;;2.69;72.78;98015.56;5009557;28;20168;-69
2023/12/18 05:15:24;;;;;;;18.37;12.30;;;;;;;2.58;73.61;98013.69;5013219;28;20834;-71
2023/12/18 05:17:50;;;;;;;23.10;13.90;;;;;;;2.55;73.12;98022.25;5009886;28;20176;-68
2023/12/18 05:20:15;;;;;;;18.87;12.30;;;;;;;2.63;73.17;98015.47;5009123;28;20208;-70
2023/12/18 05:22:41;;;;;;;20.07;13.10;;;;;;;2.59;72.68;98015.41;5009460;28;20644;-71
2023/12/18 05:25:09;;;;;;;21.30;13.87;;;;;;;2.68;72.59;98020.72;5008737;28;20377;-70
2023/12/18 05:27:34;;;;;;;17.93;12.93;;;;;;;2.54;73.69;98015.34;5009355;28;20259;-71
2023/12/18 05:29:59;;;;;;;22.87;13.63;;;;;;;2.49;73.42;98020.47;5009053;28;20566;-71
2023/12/18 05:32:25;;;;;;;21.90;14.00;;;;;;;2.55;73.17;98022.25;5010366;28;20196;-69
2023/12/18 05:34:50;;;;;;;23.57;13.97;;;;;;;2.53;73.33;98019.66;5009368;28;20262;-70
2023/12/18 05:37:16;;;;;;;28.50;14.80;;;;;;;2.51;73.86;98020.50;5008882;28;20176;-70
2023/12/18 05:39:41;;;;;;;21.47;13.97;;;;;;;2.56;73.04;98018.84;5008461;28;20204;-71
2023/12/18 05:42:06;;;;;;;21.93;13.37;;;;;;;2.51;73.64;98018.75;5007045;28;20346;-70
2023/12/18 05:44:32;;;;;;;21.70;13.50;;;;;;;2.48;74.06;98025.59;5008693;28;20219;-71
2023/12/18 05:46:57;;;;;;;25.47;14.00;;;;;;;2.54;73.70;98023.13;5008863;28;20172;-70
2023/12/18 05:49:22;;;;;;;20.47;13.00;;;;;;;2.59;73.92;98023.19;5007972;28;20218;-70
2023/12/18 05:51:48;;;;;;;17.03;12.40;;;;;;;2.81;72.46;98026.91;5009309;28;20184;-71
2023/12/18 05:54:13;;;;;;;27.23;14.13;;;;;;;2.93;71.89;98022.78;5010396;28;20192;-73
2023/12/18 05:56:38;;;;;;;18.77;12.60;;;;;;;2.75;72.82;98030.31;5014916;28;20211;-70
2023/12/18 05:59:04;;;;;;;23.90;14.17;;;;;;;2.76;72.63;98026.84;5014879;28;20191;-71
2023/12/18 06:01:29;;;;;;;21.30;14.87;;;;;;;2.61;73.35;98024.06;5009200;28;20179;-71
2023/12/18 06:03:54;;;;;;;20.00;12.33;;;;;;;2.54;74.12;98021.38;5008514;28;20188;-71
2023/12/18 06:06:20;;;;;;;20.37;12.70;;;;;;;2.50;74.05;98024.81;5008734;28;20290;-71
2023/12/18 06:08:45;;;;;;;21.07;11.60;;;;;;;2.68;73.32;98031.09;5009104;28;20536;-72
2023/12/18 06:11:10;;;;;;;21.50;14.40;;;;;;;2.57;73.59;98023.16;5008773;28;20227;-72
2023/12/18 06:13:38;;;;;;;21.90;14.23;;;;;;;2.66;73.35;98015.50;4990469;28;20211;-70
2023/12/18 06:16:04;;;;;;;22.40;13.53;;;;;;;2.90;72.29;98024.44;5008704;28;20176;-71
2023/12/18 06:18:30;;;;;;;24.77;15.93;;;;;;;2.85;72.50;98020.94;5008455;28;20766;-69
2023/12/18 06:20:55;;;;;;;18.83;12.80;;;;;;;2.82;72.49;98014.00;5008426;28;20268;-71
2023/12/18 06:23:21;;;;;;;15.50;10.20;;;;;;;2.60;73.77;98015.44;5009112;28;20172;-71
2023/12/18 06:25:46;;;;;;;25.73;13.90;;;;;;;2.58;73.74;98018.88;5000474;28;20868;-71
2023/12/18 06:28:11;;;;;;;29.63;13.97;;;;;;;2.41;74.36;98010.81;5008373;28;20188;-71
2023/12/18 06:30:37;;;;;;;26.03;14.90;;;;;;;2.56;73.90;98018.84;5008235;28;20176;-70
2023/12/18 06:33:03;;;;;;;26.17;15.63;;;;;;;2.56;73.66;98018.84;5008446;28;20196;-71
2023/12/18 06:35:28;;;;;;;26.20;16.70;;;;;;;2.48;73.30;98020.44;5007586;28;20184;-70
2023/12/18 06:37:53;;;;;;;23.70;14.63;;;;;;;2.43;73.85;98027.28;5008830;28;20179;-68
2023/12/18 06:40:19;;;;;;;23.97;14.30;;;;;;;2.37;74.34;98025.47;4989862;28;20283;-68
2023/12/18 06:42:44;;;;;;;23.73;16.10;;;;;;;2.39;74.60;98023.78;5006976;28;20311;-67
2023/12/18 06:45:09;;;;;;;28.67;17.43;;;;;;;2.51;73.80;98028.25;4999245;28;20644;-68
2023/12/18 06:47:35;;;;;;;28.83;18.00;;;;;;;2.45;74.33;98021.25;5008272;28;20195;-68
2023/12/18 06:50:00;;;;;;;28.37;16.83;;;;;;;2.57;73.91;98024.88;5007986;28;20517;-69
2023/12/18 06:52:25;;;;;;;32.57;17.87;;;;;;;2.53;74.25;98026.56;5008251;28;20286;-68
2023/12/18 06:54:51;;;;;;;27.93;15.40;;;;;;;2.62;73.60;98029.28;5008705;28;20196;-68
2023/12/18 06:57:16;;;;;;;28.30;16.63;;;;;;;2.53;74.27;98021.38;5007831;28;20180;-68
2023/12/18 06:59:42;;;;;;;25.00;15.47;;;;;;;2.63;73.44;98032.75;5004701;28;20200;-68
2023/12/18 07:02:07;;;;;;;25.70;15.57;;;;;;;2.50;73.95;98021.31;5008657;28;20207;-67
2023/12/18 07:04:32;;;;;;;30.57;16.47;;;;;;;2.52;74.05;98022.22;5008419;28;20182;-67
2023/12/18 07:06:58;;;;;;;30.10;18.10;;;;;;;2.58;73.90;98027.50;5000281;28;20185;-68
2023/12/18 07:09:24;;;;;;;33.87;16.63;;;;;;;2.45;74.30;98030.75;4986510;28;20175;-67
2023/12/18 07:11:50;;;;;;;25.57;17.87;;;;;;;2.64;73.88;98026.69;5008288;28;20245;-69
2023/12/18 07:14:15;;;;;;;30.53;16.93;;;;;;;2.68;73.68;98033.69;5005369;28;20925;-68
2023/12/18 07:16:41;;;;;;;27.03;15.77;;;;;;;2.55;74.15;98024.84;5002785;28;20207;-67
2023/12/18 07:19:07;;;;;;;26.80;16.40;;;;;;;2.73;73.90;98032.00;5003347;28;20188;-68
2023/12/18 07:21:32;;;;;;;30.47;17.50;;;;;;;2.72;73.25;98033.75;4999891;28;21186;-69
2023/12/18 07:23:58;;;;;;;24.27;17.20;;;;;;;2.80;73.32;98026.06;5006135;28;20208;-68
2023/12/18 07:26:23;;;;;;;27.77;16.77;;;;;;;2.72;73.53;98027.69;4988244;28;20616;-69
2023/12/18 07:28:48;;;;;;;31.73;17.30;;;;;;;2.71;73.58;98029.38;4994953;28;20180;-68
2023/12/18 07:31:14;;;;;;;32.30;18.30;;;;;;;2.75;73.73;98030.31;4999662;28;20199;-69
2023/12/18 07:33:39;;;;;;;26.93;18.00;;;;;;;2.67;73.87;98038.00;4995587;28;20600;-67
2023/12/18 07:36:05;;;;;;;31.57;18.77;;;;;;;2.89;72.99;98033.09;5005427;28;20191;-67
2023/12/18 07:38:30;;;;;;;28.63;16.40;;;;;;;2.77;73.26;98043.31;5005178;28;20236;-69
2023/12/18 07:40:56;;;;;;;59.40;19.80;;;;;;;2.94;72.57;98049.56;4999619;28;20224;-67
2023/12/18 07:43:22;;;;;;;33.20;18.33;;;;;;;2.74;73.30;98046.69;5002926;28;20196;-67
2023/12/18 07:45:47;;;;;;;25.30;17.47;;;;;;;2.93;72.65;98043.53;5005939;28;20810;-68
2023/12/18 07:48:13;;;;;;;29.33;18.27;;;;;;;2.78;72.73;98048.50;5007297;28;20183;-68
2023/12/18 07:50:38;;;;;;;26.20;16.37;;;;;;;2.75;72.61;98051.91;4994301;28;20204;-69
2023/12/18 07:53:03;;;;;;;29.67;18.73;;;;;;;2.84;72.78;98047.72;5004097;28;20253;-67
2023/12/18 07:55:29;;;;;;;26.13;15.23;;;;;;;2.80;72.54;98053.72;5009120;28;20184;-67
2023/12/18 07:57:54;;;;;;;25.77;16.30;;;;;;;2.82;72.73;98045.09;5006188;28;20215;-68
2023/12/18 08:00:20;;;;;;;22.40;15.07;;;;;;;2.89;72.50;98043.47;5010319;28;20342;-67
2023/12/18 08:02:45;;;;;;;26.00;17.10;;;;;;;2.83;72.39;98046.81;5004519;28;20222;-69
2023/12/18 08:05:11;;;;;;;24.20;14.60;;;;;;;2.80;72.64;98054.56;5003795;28;20708;-68
2023/12/18 08:07:36;;;;;;;26.60;16.47;;;;;;;2.74;72.83;98047.59;5012354;28;20496;-68
2023/12/18 08:10:02;;;;;;;22.10;14.63;;;;;;;2.79;72.66;98041.56;5011421;28;20164;-69
2023/12/18 08:12:27;;;;;;;26.67;17.27;;;;;;;2.79;72.95;98039.88;5011829;28;20192;-67
2023/12/18 08:14:54;;;;;;;29.33;18.50;;;;;;;2.93;72.44;98045.25;5011705;28;20188;-66
2023/12/18 08:17:19;;;;;;;59.43;20.17;;;;;;;2.92;72.13;98038.31;5011002;28;20176;-66
2023/12/18 08:19:48;;;;;;;32.83;19.47;;;;;;;2.79;72.07;98039.88;5010289;28;20462;-70
2023/12/18 08:22:14;;;;;;;44.00;20.23;;;;;;;2.85;72.53;98049.44;5011215;28;20220;-68
2023/12/18 08:24:41;;;;;;;52.77;21.60;;;;;;;2.86;72.21;98046.88;5011297;28;20412;-67
2023/12/18 08:27:06;;;;;;;30.57;19.77;;;;;;;2.93;72.23;98047.84;5011166;28;20838;-68
2023/12/18 08:29:31;;;;;;;32.97;19.97;;;;;;;2.97;72.24;98047.00;5003539;28;20434;-67
2023/12/18 08:31:57;;;;;;;31.83;17.80;;;;;;;2.98;72.44;98053.94;5011361;28;20749;-67
2023/12/18 08:34:25;;;;;;;37.80;18.40;;;;;;;3.06;71.54;98052.31;5011406;28;20185;-67
2023/12/18 08:36:53;;;;;;;24.60;16.13;;;;;;;3.10;71.72;98050.66;5011210;28;20171;-67
2023/12/18 08:39:18;;;;;;;33.07;19.47;;;;;;;3.02;72.24;98044.47;5010557;28;20407;-67
2023/12/18 08:41:46;;;;;;;26.13;16.43;;;;;;;3.26;71.13;98039.59;5010309;28;20457;-67
2023/12/18 08:44:11;;;;;;;25.33;15.73;;;;;;;3.12;71.13;98038.56;5009855;28;20176;-69
2023/12/18 08:46:36;;;;;;;25.73;15.73;;;;;;;3.09;71.33;98029.00;5010154;28;20411;-69
2023/12/18 08:49:02;;;;;;;26.73;16.87;;;;;;;3.22;70.65;98031.75;5009581;28;20200;-67
2023/12/18 08:51:27;;;;;;;24.67;16.30;;;;;;;3.22;70.91;98029.16;5024510;28;20689;-67
2023/12/18 08:53:54;;;;;;;29.03;17.10;;;;;;;3.30;70.76;98024.91;5009619;28;20173;-68
2023/12/18 08:56:20;;;;;;;34.50;17.70;;;;;;;3.28;70.26;98024.88;5009853;28;20741;-69
2023/12/18 08:58:45;;;;;;;24.23;16.27;;;;;;;3.40;69.77;98024.16;5007579;28;20415;-68
2023/12/18 09:01:10;;;;;;;29.73;17.87;;;;;;;3.32;69.96;98026.66;5010062;28;20745;-68
2023/12/18 09:03:36;;;;;;;30.13;18.50;;;;;;;3.48;70.29;98024.25;5009690;28;20914;-72
2023/12/18 09:06:02;;;;;;;28.90;17.60;;;;;;;3.49;69.76;98024.25;5009676;28;20188;-68
2023/12/18 09:08:28;;;;;;;31.30;18.30;;;;;;;3.50;70.06;98026.00;5010276;28;20183;-67
2023/12/18 09:10:54;;;;;;;33.00;19.17;;;;;;;3.50;69.78;98023.41;5001738;28;20915;-68
2023/12/18 09:13:19;;;;;;;28.60;18.57;;;;;;;3.72;69.11;98029.66;5011501;28;20534;-67
2023/12/18 09:15:45;;;;;;;27.70;18.10;;;;;;;3.79;69.17;98026.28;5013912;28;20173;-68
2023/12/18 09:18:10;;;;;;;29.23;17.23;;;;;;;4.00;67.97;98022.13;5006995;28;20318;-67
2023/12/18 09:20:36;;;;;;;33.10;18.10;;;;;;;4.07;67.95;98025.66;4999012;28;20245;-67
2023/12/18 09:23:05;;;;;;;32.57;18.00;;;;;;;4.06;67.84;98029.09;5005421;28;20187;-69
2023/12/18 09:25:30;;;;;;;28.20;19.13;;;;;;;4.05;68.18;98028.22;4972467;28;20176;-66
2023/12/18 09:27:55;;;;;;;32.60;21.00;;;;;;;4.13;68.01;98023.09;5002845;28;20422;-67
2023/12/18 09:30:21;;;;;;;27.33;20.47;;;;;;;3.96;68.35;98034.22;5014670;28;20192;-69
2023/12/18 09:32:46;;;;;;;29.47;18.10;;;;;;;3.96;68.37;98034.22;5001356;28;20165;-67
2023/12/18 09:35:12;;;;;;;27.97;19.20;;;;;;;3.95;68.40;98040.28;5003204;28;20581;-68
2023/12/18 09:37:37;;;;;;;22.40;16.00;;;;;;;4.00;67.78;98032.53;5002993;28;20180;-66
2023/12/18 09:40:06;;;;;;;31.90;18.60;;;;;;;3.98;68.18;98036.84;5009109;28;20246;-68
2023/12/18 09:42:32;;;;;;;25.00;16.07;;;;;;;4.03;67.78;98025.59;5009163;28;20215;-68
2023/12/18 09:45:00;;;;;;;20.90;14.80;;;;;;;3.95;68.32;98026.44;5009321;28;20422;-70
2023/12/18 09:47:26;;;;;;;22.33;15.30;;;;;;;4.00;68.18;98022.13;5009979;28;20411;-66
2023/12/18 09:49:54;;;;;;;22.93;16.67;;;;;;;3.93;68.15;98026.41;5008894;28;20403;-67
2023/12/18 09:52:22;;;;;;;23.03;15.57;;;;;;;4.00;67.96;98010.00;5008722;28;20815;-67
2023/12/18 09:54:49;;;;;;;27.20;15.80;;;;;;;4.24;66.70;98014.50;5009398;28;20459;-67
2023/12/18 09:57:18;;;;;;;21.40;13.37;;;;;;;4.24;67.52;98013.66;5008664;28;20571;-66
2023/12/18 09:59:45;;;;;;;27.87;14.20;;;;;;;4.67;66.11;98009.56;5009790;28;20422;-69
2023/12/18 10:02:12;;;;;;;23.10;13.57;;;;;;;4.82;65.85;98008.81;5009562;28;20961;-67
2023/12/18 10:04:41;;;;;;;24.00;12.97;;;;;;;4.95;65.81;98009.72;5009103;28;20462;-69
2023/12/18 10:07:07;;;;;;;26.83;16.27;;;;;;;4.74;65.63;98007.88;5009109;28;20518;-65
2023/12/18 10:09:35;;;;;;;35.13;14.70;;;;;;;4.72;66.09;98007.00;5004402;28;20502;-68
2023/12/18 10:12:00;;;;;;;24.07;14.80;;;;;;;4.94;65.59;98010.59;5009178;28;20184;-69
2023/12/18 10:14:26;;;;;;;21.70;13.67;;;;;;;4.86;65.35;98005.31;5002857;28;20431;-66
2023/12/18 10:16:51;;;;;;;18.97;13.90;;;;;;;5.08;65.53;98010.66;5012332;28;20219;-66
2023/12/18 10:19:18;;;;;;;22.93;15.23;;;;;;;5.40;63.84;98000.31;5011266;28;20176;-67
2023/12/18 10:21:43;;;;;;;19.77;14.27;;;;;;;5.61;63.46;97998.63;5013325;28;20200;-68
2023/12/18 10:24:09;;;;;;;23.90;15.27;;;;;;;5.98;62.06;97988.28;5013092;28;20429;-68
2023/12/18 10:26:35;;;;;;;21.80;12.50;;;;;;;6.34;60.71;97989.97;5012384;28;20176;-69
2023/12/18 10:29:01;;;;;;;28.60;14.93;;;;;;;6.52;60.27;97984.72;5005101;28;20177;-68
2023/12/18 10:31:27;;;;;;;21.67;13.10;;;;;;;6.54;60.10;97974.28;5004647;28;20219;-67
2023/12/18 10:33:54;;;;;;;39.77;19.60;;;;;;;6.63;60.26;97965.56;5013076;28;20481;-67
2023/12/18 10:36:23;;;;;;;20.00;12.97;;;;;;;6.87;58.84;97965.47;5014321;28;20494;-68
2023/12/18 10:38:50;;;;;;;27.67;15.53;;;;;;;6.90;59.08;97959.38;5013251;28;20442;-67
2023/12/18 10:41:19;;;;;;;22.50;12.00;;;;;;;6.98;57.88;97947.16;5010274;28;20488;-68
2023/12/18 10:43:47;;;;;;;23.10;12.03;;;;;;;7.06;58.04;97950.59;5004265;28;20461;-68
2023/12/18 10:46:13;;;;;;;19.60;12.07;;;;;;;7.14;57.66;97943.59;5010893;28;20985;-69
2023/12/18 10:48:40;;;;;;;19.43;13.20;;;;;;;7.29;57.36;97936.53;5010421;28;20510;-68
2023/12/18 10:51:07;;;;;;;19.10;13.60;;;;;;;7.30;57.49;97931.31;5012682;28;20446;-66
2023/12/18 10:53:37;;;;;;;21.43;13.73;;;;;;;7.63;57.25;97931.97;5013143;28;20415;-66
2023/12/18 10:56:04;;;;;;;31.33;13.00;;;;;;;7.55;56.66;97928.53;5011760;28;20427;-68
2023/12/18 10:58:30;;;;;;;21.30;12.53;;;;;;;7.62;56.25;97922.38;5010549;28;20836;-67
2023/12/18 11:00:57;;;;;;;24.40;12.63;;;;;;;7.52;57.01;97918.97;5011217;28;20470;-66
2023/12/18 11:03:26;;;;;;;18.60;12.10;;;;;;;7.68;56.84;97914.50;5010863;28;20413;-67
2023/12/18 11:05:54;;;;;;;35.20;14.07;;;;;;;7.75;56.30;97916.19;5012086;28;20419;-66
2023/12/18 11:08:20;;;;;;;40.30;16.40;;;;;;;7.90;56.72;97909.97;5014012;28;20553;-69
2023/12/18 11:10:46;;;;;;;24.73;14.00;;;;;;;8.04;55.70;97907.22;5015691;28;20435;-67
2023/12/18 11:13:11;;;;;;;24.10;13.50;;;;;;;8.05;55.47;97901.09;5014338;28;20453;-68
2023/12/18 11:15:41;;;;;;;27.53;11.90;;;;;;;8.19;56.00;97904.44;5011457;28;20539;-67
2023/12/18 11:18:54;;;;;;;34.47;13.43;;;;;;;8.10;55.68;97901.91;5012101;28;20176;-67
2023/12/18 11:21:19;;;;;;;18.70;12.90;;;;;;;8.17;55.47;97897.50;4940896;29;20497;-67